createdAt,value
2018-07-12T00:01:16.705Z,21.37
2018-07-12T00:03:43.759Z,20.77
2018-07-12T00:06:10.836Z,22.73
2018-07-12T00:08:37.886Z,20.60
2018-07-12T00:11:04.971Z,18.67
2018-07-12T00:13:32.047Z,19.07
2018-07-12T00:15:59.124Z,21.10
2018-07-12T00:18:26.187Z,23.50
2018-07-12T00:20:53.285Z,22.10
2018-07-12T00:23:20.352Z,30.73
2018-07-12T00:25:47.434Z,24.33
2018-07-12T00:28:14.504Z,22.30
2018-07-12T00:30:41.571Z,21.67
2018-07-12T00:33:08.653Z,18.67
2018-07-12T00:35:35.750Z,19.07
2018-07-12T00:38:02.819Z,22.60
2018-07-12T00:40:29.887Z,23.77
2018-07-12T00:42:56.951Z,22.07
2018-07-12T00:45:24.018Z,24.27
2018-07-12T00:47:51.099Z,20.90
2018-07-12T00:50:18.174Z,21.20
2018-07-12T00:52:45.243Z,22.10
2018-07-12T00:55:12.334Z,25.40
2018-07-12T00:57:39.396Z,27.27
2018-07-12T01:00:06.474Z,25.40
2018-07-12T01:02:33.541Z,20.67
2018-07-12T01:05:00.620Z,17.77
2018-07-12T01:07:27.700Z,19.50
2018-07-12T01:09:54.776Z,25.03
2018-07-12T01:12:21.855Z,22.27
2018-07-12T01:14:48.909Z,21.10
2018-07-12T01:17:15.983Z,19.63
2018-07-12T01:19:43.059Z,17.07
2018-07-12T01:22:10.123Z,19.03
2018-07-12T01:24:37.209Z,18.23
2018-07-12T01:27:04.268Z,17.83
2018-07-12T01:29:31.339Z,19.07
2018-07-12T01:31:58.412Z,22.00
2018-07-12T01:34:25.471Z,16.90
2018-07-12T01:36:52.564Z,20.07
2018-07-12T01:39:19.626Z,20.20
2018-07-12T01:41:46.702Z,20.17
2018-07-12T01:44:13.771Z,20.73
2018-07-12T01:46:40.851Z,18.63
2018-07-12T01:49:07.919Z,17.73
2018-07-12T01:51:35.020Z,20.33
2018-07-12T01:54:02.122Z,22.30
2018-07-12T01:56:29.193Z,21.80
2018-07-12T01:58:56.281Z,19.80
2018-07-12T02:01:23.344Z,18.97
2018-07-12T02:03:50.407Z,19.70
2018-07-12T02:06:17.495Z,23.80
2018-07-12T02:08:44.582Z,23.43
2018-07-12T02:11:11.655Z,18.53
2018-07-12T02:13:38.732Z,21.57
2018-07-12T02:16:05.798Z,20.77
2018-07-12T02:18:32.864Z,19.07
2018-07-12T02:20:59.938Z,20.30
2018-07-12T02:23:27.009Z,18.37
2018-07-12T02:25:54.097Z,17.80
2018-07-12T02:28:21.173Z,22.33
2018-07-12T02:30:48.297Z,17.83
2018-07-12T02:33:15.420Z,19.77
2018-07-12T02:35:42.515Z,17.70
2018-07-12T02:38:09.591Z,18.90
2018-07-12T02:40:36.703Z,21.40
2018-07-12T02:43:03.758Z,21.93
2018-07-12T02:45:30.827Z,19.43
2018-07-12T02:47:57.892Z,20.70
2018-07-12T02:50:24.971Z,22.67
2018-07-12T02:52:52.043Z,21.37
2018-07-12T02:55:19.207Z,20.73
2018-07-12T02:57:46.337Z,20.57
2018-07-12T03:00:13.509Z,21.37
2018-07-12T03:02:40.602Z,22.80
2018-07-12T03:05:07.704Z,21.93
2018-07-12T03:07:34.883Z,18.17
2018-07-12T03:10:01.972Z,23.23
2018-07-12T03:12:29.072Z,21.47
2018-07-12T03:14:56.142Z,20.80
2018-07-12T03:17:23.211Z,18.47
2018-07-12T03:19:50.281Z,18.93
2018-07-12T03:22:17.356Z,21.87
2018-07-12T03:24:44.535Z,22.17
2018-07-12T03:27:11.612Z,18.73
2018-07-12T03:29:38.698Z,20.97
2018-07-12T03:32:05.768Z,22.93
2018-07-12T03:34:32.859Z,20.03
2018-07-12T03:36:59.978Z,22.40
2018-07-12T03:39:27.044Z,20.80
2018-07-12T03:41:54.422Z,17.93
2018-07-12T03:44:21.510Z,21.17
2018-07-12T03:46:48.597Z,21.90
2018-07-12T03:49:15.662Z,20.10
2018-07-12T03:51:42.787Z,22.00
2018-07-12T03:54:09.874Z,21.77
2018-07-12T03:56:36.941Z,24.00
2018-07-12T03:59:04.002Z,25.37
2018-07-12T04:01:31.084Z,20.97
2018-07-12T04:03:58.165Z,21.77
2018-07-12T04:06:25.260Z,20.67
2018-07-12T04:08:52.329Z,20.40
2018-07-12T04:11:19.406Z,24.73
2018-07-12T04:13:46.477Z,21.10
2018-07-12T04:16:13.639Z,21.10
2018-07-12T04:18:40.732Z,22.50
2018-07-12T04:21:07.852Z,20.00
2018-07-12T04:23:34.914Z,20.83
2018-07-12T04:26:01.987Z,18.10
2018-07-12T04:28:29.047Z,18.83
2018-07-12T04:30:56.128Z,17.00
2018-07-12T04:33:23.198Z,19.27
2018-07-12T04:35:50.276Z,20.07
2018-07-12T04:38:17.346Z,18.10
2018-07-12T04:40:44.419Z,18.17
2018-07-12T04:43:11.487Z,15.30
2018-07-12T04:45:38.573Z,17.20
2018-07-12T04:48:05.635Z,19.10
2018-07-12T04:50:32.712Z,19.10
2018-07-12T04:52:59.783Z,17.27
2018-07-12T04:55:26.856Z,15.97
2018-07-12T04:57:53.948Z,16.20
2018-07-12T05:00:21.049Z,16.33
2018-07-12T05:02:48.187Z,18.60
2018-07-12T05:05:15.238Z,18.40
2018-07-12T05:07:42.331Z,17.73
2018-07-12T05:10:09.416Z,17.30
2018-07-12T05:12:36.486Z,23.37
2018-07-12T05:15:03.556Z,22.33
2018-07-12T05:17:30.630Z,17.60
2018-07-12T05:19:57.699Z,19.27
2018-07-12T05:22:24.775Z,23.67
2018-07-12T05:24:51.852Z,20.50
2018-07-12T05:27:19.013Z,18.77
2018-07-12T05:29:46.080Z,22.60
2018-07-12T05:32:13.145Z,19.70
2018-07-12T05:34:40.212Z,20.30
2018-07-12T05:37:08.300Z,21.67
2018-07-12T05:39:36.356Z,21.87
2018-07-12T05:42:04.438Z,27.33
2018-07-12T05:44:32.527Z,24.27
2018-07-12T05:47:00.604Z,22.23
2018-07-12T05:49:28.689Z,24.13
2018-07-12T05:51:56.771Z,21.10
2018-07-12T05:54:24.855Z,22.00
2018-07-12T05:56:52.950Z,21.50
2018-07-12T05:59:21.044Z,20.10
2018-07-12T06:02:00.299Z,25.23
2018-07-12T06:04:28.427Z,23.63
2018-07-12T06:06:56.459Z,22.43
2018-07-12T06:09:24.539Z,21.70
2018-07-12T06:11:52.644Z,19.80
2018-07-12T06:14:20.753Z,17.97
2018-07-12T06:16:48.828Z,22.33
2018-07-12T06:19:16.898Z,17.40
2018-07-12T06:21:44.999Z,17.63
2018-07-12T06:24:13.089Z,13.23
2018-07-12T06:26:41.172Z,10.57
2018-07-12T06:29:09.280Z,14.07
2018-07-12T06:31:37.356Z,14.70
2018-07-12T06:34:05.452Z,18.60
2018-07-12T06:36:33.547Z,19.40
2018-07-12T06:39:01.689Z,15.30
2018-07-12T06:41:29.811Z,14.03
2018-07-12T06:43:57.895Z,13.63
2018-07-12T06:46:25.988Z,12.83
2018-07-12T06:48:54.063Z,13.70
2018-07-12T06:51:22.153Z,11.80
2018-07-12T06:53:50.418Z,11.80
2018-07-12T06:56:18.477Z,10.87
2018-07-12T06:58:46.643Z,10.10
2018-07-12T07:01:14.767Z,10.57
2018-07-12T07:03:42.836Z,9.37
2018-07-12T07:06:10.933Z,9.83
2018-07-12T07:08:39.008Z,9.90
2018-07-12T07:11:07.348Z,11.60
2018-07-12T07:13:35.723Z,13.73
2018-07-12T07:16:03.855Z,11.37
2018-07-12T07:18:31.970Z,11.83
2018-07-12T07:21:00.048Z,11.50
2018-07-12T07:23:28.156Z,11.47
2018-07-12T07:25:56.227Z,11.37
2018-07-12T07:28:24.313Z,12.83
2018-07-12T07:30:52.389Z,11.47
2018-07-12T07:33:27.123Z,9.53
2018-07-12T07:35:55.124Z,10.20
2018-07-12T07:38:23.216Z,9.77
2018-07-12T07:40:51.294Z,8.43
2018-07-12T07:43:19.505Z,9.10
2018-07-12T07:45:47.509Z,7.40
2018-07-12T07:48:15.587Z,6.43
2018-07-12T07:50:43.715Z,6.73
2018-07-12T07:53:11.780Z,6.70
2018-07-12T07:55:39.878Z,6.87
2018-07-12T07:58:07.960Z,7.30
2018-07-12T08:00:36.008Z,7.03
2018-07-12T08:03:04.089Z,8.30
2018-07-12T08:05:32.174Z,7.00
2018-07-12T08:08:00.232Z,7.40
2018-07-12T08:10:28.396Z,7.27
2018-07-12T08:12:56.506Z,7.10
2018-07-12T08:15:24.604Z,9.10
2018-07-12T08:17:52.744Z,9.10
2018-07-12T08:20:21.882Z,7.73
2018-07-12T08:22:49.954Z,7.80
2018-07-12T08:25:18.028Z,9.00
2018-07-12T08:27:58.175Z,9.53
2018-07-12T08:30:26.252Z,8.40
2018-07-12T08:32:54.376Z,8.13
2018-07-12T08:35:22.446Z,9.93
2018-07-12T08:37:50.910Z,7.60
2018-07-12T08:40:19.134Z,8.00
2018-07-12T08:42:47.258Z,9.90
2018-07-12T08:45:17.591Z,7.00
2018-07-12T08:47:45.684Z,7.30
2018-07-12T08:50:13.807Z,7.90
2018-07-12T08:52:41.891Z,8.40
2018-07-12T08:55:09.964Z,8.03
2018-07-12T08:57:38.151Z,6.37
2018-07-12T09:00:06.296Z,6.20
2018-07-12T09:02:34.387Z,5.40
2018-07-12T09:05:02.443Z,5.97
2018-07-12T09:07:30.496Z,7.90
2018-07-12T09:09:58.567Z,5.90
2018-07-12T09:12:26.662Z,3.60
2018-07-12T09:14:54.734Z,5.23
2018-07-12T09:17:22.851Z,4.23
2018-07-12T09:19:50.963Z,3.97
2018-07-12T09:22:19.074Z,3.83
2018-07-12T09:24:47.184Z,4.07
2018-07-12T09:27:15.276Z,3.93
2018-07-12T09:29:43.473Z,3.37
2018-07-12T09:32:11.552Z,5.00
2018-07-12T09:34:39.624Z,3.03
2018-07-12T09:37:07.742Z,4.77
2018-07-12T09:39:36.124Z,5.10
2018-07-12T09:42:10.899Z,3.73
2018-07-12T09:44:38.994Z,3.77
2018-07-12T09:47:07.111Z,7.10
2018-07-12T09:49:35.220Z,5.10
2018-07-12T09:52:03.276Z,4.70
2018-07-12T09:54:31.335Z,2.93
2018-07-12T09:57:10.644Z,2.60
2018-07-12T09:59:38.799Z,3.40
2018-07-12T10:02:12.265Z,3.37
2018-07-12T10:04:40.336Z,3.40
2018-07-12T10:07:13.784Z,3.77
2018-07-12T10:09:47.276Z,3.47
2018-07-12T10:12:20.755Z,3.10
2018-07-12T10:14:50.878Z,2.90
2018-07-12T10:17:24.204Z,3.70
2018-07-12T10:19:52.340Z,3.07
2018-07-12T10:22:20.352Z,3.70
2018-07-12T10:24:51.054Z,5.10
2018-07-12T10:27:19.091Z,4.03
2018-07-12T10:29:47.202Z,2.23
2018-07-12T10:32:15.212Z,5.33
2018-07-12T10:34:43.296Z,3.47
2018-07-12T10:37:11.361Z,3.07
2018-07-12T10:39:39.485Z,3.40
2018-07-12T10:42:07.548Z,3.37
2018-07-12T10:44:35.689Z,2.70
2018-07-12T10:47:03.750Z,2.60
2018-07-12T10:49:31.821Z,3.30
2018-07-12T10:51:59.879Z,4.70
2018-07-12T10:54:29.356Z,3.50
2018-07-12T10:56:57.436Z,4.30
2018-07-12T10:59:29.000Z,3.17
2018-07-12T11:01:57.064Z,3.13
2018-07-12T11:04:25.147Z,2.63
2018-07-12T11:06:54.019Z,3.80
2018-07-12T11:09:22.120Z,3.03
2018-07-12T11:11:50.239Z,3.07
2018-07-12T11:14:18.305Z,2.87
2018-07-12T11:16:46.416Z,3.10
2018-07-12T11:19:17.028Z,4.23
2018-07-12T11:21:45.225Z,2.60
2018-07-12T11:24:20.243Z,3.83
2018-07-12T11:27:03.265Z,3.57
2018-07-12T11:29:42.905Z,2.77
2018-07-12T11:34:55.706Z,3.33
2018-07-12T11:37:26.252Z,2.73
2018-07-12T11:39:54.402Z,2.60
2018-07-12T11:42:22.575Z,2.63
2018-07-12T11:45:03.575Z,3.57
2018-07-12T11:56:23.784Z,2.97
2018-07-12T12:01:32.557Z,2.97
2018-07-12T12:04:00.728Z,2.77
2018-07-12T12:06:28.911Z,2.57
2018-07-12T12:08:57.135Z,4.60
2018-07-12T12:11:25.378Z,2.57
2018-07-12T12:13:53.487Z,2.87
2018-07-12T12:16:21.717Z,2.80
2018-07-12T12:18:51.628Z,3.00
2018-07-12T12:21:19.822Z,2.80
2018-07-12T12:23:48.028Z,2.50
2018-07-12T12:26:16.313Z,2.43
2018-07-12T12:28:46.840Z,2.50
2018-07-12T12:31:15.019Z,2.60
2018-07-12T12:34:01.156Z,3.30
2018-07-12T12:36:29.323Z,5.33
2018-07-12T12:38:57.455Z,3.67
2018-07-12T12:41:25.527Z,1.90
2018-07-12T12:43:53.676Z,4.93
2018-07-12T12:46:21.735Z,2.63
2018-07-12T12:48:49.856Z,2.97
2018-07-12T12:51:17.938Z,2.50
2018-07-12T12:53:46.003Z,4.20
2018-07-12T12:56:14.095Z,3.10
2018-07-12T12:58:42.189Z,2.17
2018-07-12T13:01:10.327Z,2.23
2018-07-12T13:03:38.391Z,2.20
2018-07-12T13:06:06.592Z,2.40
2018-07-12T13:08:34.771Z,3.00
2018-07-12T13:11:03.030Z,2.83
2018-07-12T13:13:31.225Z,3.60
2018-07-12T13:15:59.498Z,2.53
2018-07-12T13:18:27.969Z,2.70
2018-07-12T13:20:58.129Z,2.30
2018-07-12T13:23:26.516Z,3.80
2018-07-12T13:25:54.842Z,2.50
2018-07-12T13:28:22.949Z,2.67
2018-07-12T13:30:51.350Z,2.10
2018-07-12T13:33:19.483Z,4.80
2018-07-12T13:35:47.558Z,2.10
2018-07-12T13:41:31.465Z,2.50
2018-07-12T13:44:13.065Z,3.30
2018-07-12T13:46:42.295Z,2.40
2018-07-12T13:49:11.876Z,2.37
2018-07-12T13:51:40.464Z,2.47
2018-07-12T13:54:10.392Z,2.07
2018-07-12T13:56:39.194Z,2.37
2018-07-12T13:59:09.934Z,2.00
2018-07-12T14:01:43.757Z,3.03
2018-07-12T14:04:12.865Z,2.27
2018-07-12T14:06:42.266Z,2.40
2018-07-12T14:09:13.288Z,2.37
2018-07-12T14:11:41.762Z,2.53
2018-07-12T14:14:11.111Z,3.53
2018-07-12T14:16:40.112Z,2.77
2018-07-12T14:19:08.711Z,2.37
2018-07-12T14:21:39.220Z,2.23
2018-07-12T14:24:08.379Z,1.93
2018-07-12T14:26:38.382Z,2.13
2018-07-12T14:29:08.941Z,2.70
2018-07-12T14:31:39.021Z,2.20
2018-07-12T14:34:07.610Z,2.03
2018-07-12T14:36:38.813Z,2.30
2018-07-12T14:39:09.721Z,2.23
2018-07-12T14:41:38.221Z,2.03
2018-07-12T14:44:07.717Z,2.40
2018-07-12T14:46:38.127Z,2.40
2018-07-12T14:49:10.532Z,2.13
2018-07-12T14:51:38.788Z,2.10
2018-07-12T14:54:06.971Z,2.30
2018-07-12T14:56:35.196Z,12.43
2018-07-12T14:59:03.535Z,6.00
2018-07-12T15:01:40.648Z,2.37
2018-07-12T15:04:08.719Z,2.37
2018-07-12T15:06:36.797Z,1.60
2018-07-12T15:09:10.309Z,1.97
2018-07-12T15:11:38.840Z,2.70
2018-07-12T15:14:07.081Z,2.80
2018-07-12T15:16:35.152Z,2.37
2018-07-12T15:19:03.479Z,2.00
2018-07-12T15:21:31.590Z,2.37
2018-07-12T15:23:59.794Z,2.53
2018-07-12T15:26:27.955Z,2.13
2018-07-12T15:28:56.142Z,2.13
2018-07-12T15:31:24.393Z,2.40
2018-07-12T15:33:52.544Z,2.00
2018-07-12T15:36:20.832Z,1.97
2018-07-12T15:38:49.011Z,3.50
2018-07-12T15:41:17.151Z,2.87
2018-07-12T15:43:45.332Z,2.17
2018-07-12T15:46:13.588Z,2.50
2018-07-12T15:48:42.508Z,2.53
2018-07-12T15:51:10.740Z,2.40
2018-07-12T15:53:38.958Z,4.30
2018-07-12T15:56:07.826Z,2.43
2018-07-12T15:58:38.975Z,2.17
2018-07-12T16:01:07.178Z,2.27
2018-07-12T16:03:35.392Z,3.27
2018-07-12T16:06:03.606Z,3.33
2018-07-12T16:08:31.815Z,3.43
2018-07-12T16:11:00.048Z,3.07
2018-07-12T16:13:28.255Z,3.50
2018-07-12T16:15:56.416Z,2.20
2018-07-12T16:18:24.647Z,2.17
2018-07-12T16:20:52.858Z,2.60
2018-07-12T16:23:21.068Z,4.10
2018-07-12T16:25:49.243Z,2.03
2018-07-12T16:28:17.379Z,4.07
2018-07-12T16:30:45.455Z,3.90
2018-07-12T16:33:13.544Z,3.37
2018-07-12T16:35:41.641Z,4.00
2018-07-12T16:38:09.770Z,2.27
2018-07-12T16:40:37.839Z,2.67
2018-07-12T16:43:05.996Z,2.67
2018-07-12T16:45:34.088Z,2.60
2018-07-12T16:48:02.208Z,2.20
2018-07-12T16:50:30.273Z,1.90
2018-07-12T16:52:58.344Z,2.50
2018-07-12T16:55:26.407Z,3.23
2018-07-12T16:57:54.482Z,2.30
2018-07-12T17:00:22.656Z,2.40
2018-07-12T17:02:50.966Z,2.07
2018-07-12T17:05:19.079Z,2.30
2018-07-12T17:07:47.409Z,6.20
2018-07-12T17:10:15.513Z,2.33
2018-07-12T17:12:43.917Z,2.57
2018-07-12T17:15:16.890Z,2.40
2018-07-12T17:20:43.273Z,2.60
2018-07-12T17:23:30.235Z,4.17
2018-07-12T17:25:59.396Z,2.10
2018-07-12T17:28:27.781Z,1.97
2018-07-12T17:30:56.167Z,28.37
2018-07-12T17:33:24.399Z,4.20
2018-07-12T17:35:52.562Z,3.50
2018-07-12T17:38:20.821Z,3.50
2018-07-12T17:40:48.984Z,2.80
2018-07-12T17:43:17.185Z,2.40
2018-07-12T17:45:45.411Z,2.70
2018-07-12T17:48:14.279Z,3.10
2018-07-12T17:50:42.463Z,3.33
2018-07-12T17:53:10.694Z,2.90
2018-07-12T17:56:15.520Z,2.93
2018-07-12T18:04:42.751Z,4.43
2018-07-12T18:11:01.761Z,4.43
2018-07-12T18:27:31.998Z,3.80
2018-07-12T18:31:58.776Z,4.30
2018-07-12T18:57:55.997Z,5.47
2018-07-12T19:00:51.647Z,6.07
2018-07-12T19:08:57.536Z,4.70
2018-07-12T20:19:12.548Z,5.47
2018-07-12T20:21:56.474Z,6.70
2018-07-12T20:25:03.825Z,5.73
2018-07-12T20:54:45.121Z,5.20
2018-07-12T21:06:11.931Z,6.60
2018-07-12T21:12:02.002Z,6.77
2018-07-12T22:21:01.735Z,8.93
2018-07-12T22:23:33.304Z,7.00
2018-07-12T22:26:07.974Z,6.20
2018-07-12T22:28:38.790Z,7.13
2018-07-12T22:31:12.204Z,6.80
2018-07-12T22:33:43.041Z,7.03
2018-07-12T22:36:16.871Z,6.07
2018-07-12T22:38:47.142Z,7.50
2018-07-12T22:41:20.550Z,5.83
2018-07-12T22:43:50.504Z,5.77
2018-07-12T22:46:31.628Z,5.90
2018-07-12T22:49:01.544Z,5.83
2018-07-12T22:51:50.176Z,6.83
2018-07-12T23:00:38.755Z,6.07
2018-07-12T23:03:39.676Z,7.67
2018-07-12T23:06:10.026Z,6.40
2018-07-12T23:08:39.285Z,6.50
2018-07-12T23:11:19.654Z,7.80
2018-07-12T23:16:41.821Z,8.10
2018-07-12T23:19:17.607Z,7.40
2018-07-12T23:21:52.639Z,6.93
2018-07-12T23:24:27.148Z,6.77
2018-07-12T23:27:00.750Z,8.80
2018-07-12T23:29:38.100Z,6.30
2018-07-12T23:32:14.232Z,6.53
2018-07-12T23:34:52.329Z,6.50
2018-07-12T23:37:28.981Z,6.50
2018-07-12T23:42:50.196Z,6.67
2018-07-12T23:45:27.128Z,7.10
2018-07-12T23:51:28.900Z,7.73
2018-07-12T23:54:02.743Z,7.63
2018-07-12T23:56:38.019Z,7.50
2018-07-12T23:59:13.648Z,6.83
